Time;durP1;ratioP1;P1;durP2;ratioP2;P2;SDS_P1;SDS_P2;PMS_P1;PMS_P2;Temp;Humidity;BMP_temperature;BMP_pressure;BME280_temperature;BME280_humidity;BME280_pressure;Samples;Min_cycle;Max_cycle;Signal;HPM_P1;HPM_P2
2023/09/18 00:02:11;;;;;;;;;8.00;5.00;;;;;22.23;100.00;100497.56;5072875;27;70128;-75
2023/09/18 00:04:36;;;;;;;;;3.67;3.67;;;;;22.25;100.00;100503.75;5077501;28;64866;-76
2023/09/18 00:07:02;;;;;;;;;5.67;4.33;;;;;22.20;100.00;100506.63;5069139;27;62442;-75
2023/09/18 00:09:27;;;;;;;;;5.33;4.67;;;;;22.18;100.00;100496.91;5065060;28;47512;-76
2023/09/18 00:11:53;;;;;;;;;5.00;5.00;;;;;22.18;100.00;100492.38;5064666;27;66282;-75
2023/09/18 00:14:18;;;;;;;;;6.00;6.00;;;;;22.15;100.00;100491.63;5035068;27;1141168;-76
2023/09/18 00:16:43;;;;;;;;;6.33;6.33;;;;;22.16;100.00;100498.78;5071657;27;45490;-75
2023/09/18 00:19:10;;;;;;;;;7.33;4.67;;;;;22.16;100.00;100488.91;5076976;27;45422;-75
2023/09/18 00:21:36;;;;;;;;;7.00;5.00;;;;;22.11;100.00;100496.28;5072794;27;45342;-75
2023/09/18 00:24:01;;;;;;;;;8.00;6.00;;;;;22.11;100.00;100500.78;5067202;28;45245;-76
2023/09/18 00:26:27;;;;;;;;;7.33;6.00;;;;;22.10;100.00;100480.16;5070800;28;45481;-76
2023/09/18 00:28:52;;;;;;;;;8.33;6.33;;;;;22.08;100.00;100477.53;5076948;28;47337;-75
2023/09/18 00:31:19;;;;;;;;;4.00;4.00;;;;;22.11;100.00;100473.91;5077121;27;45462;-75
2023/09/18 00:33:44;;;;;;;;;3.67;3.00;;;;;22.09;100.00;100475.72;5078525;27;45409;-75
2023/09/18 00:36:10;;;;;;;;;4.33;4.33;;;;;22.04;100.00;100480.41;5078039;27;58595;-75
2023/09/18 00:38:35;;;;;;;;;5.00;4.00;;;;;22.01;100.00;100480.56;5078339;27;46623;-75
2023/09/18 00:41:01;;;;;;;;;4.00;4.00;;;;;21.97;100.00;100466.38;5077857;27;68435;-75
2023/09/18 00:43:26;;;;;;;;;5.67;4.00;;;;;21.96;100.00;100480.75;5077631;27;65192;-76
2023/09/18 00:45:51;;;;;;;;;3.00;3.00;;;;;21.90;100.00;100483.69;5077825;27;62414;-76
2023/09/18 00:48:17;;;;;;;;;5.33;4.00;;;;;21.85;100.00;100478.50;5074907;28;70084;-76
2023/09/18 00:50:44;;;;;;;;;4.67;3.67;;;;;21.84;100.00;100487.53;5078310;28;45393;-76
2023/09/18 00:53:12;;;;;;;;;2.00;2.00;;;;;21.81;100.00;100487.63;5076170;27;45438;-75
2023/09/18 00:55:38;;;;;;;;;4.67;3.67;;;;;21.80;100.00;100493.94;5078751;27;45363;-75
2023/09/18 00:58:05;;;;;;;;;2.00;2.00;;;;;21.78;100.00;100498.50;5073612;28;46770;-75
2023/09/18 01:00:30;;;;;;;;;4.33;1.67;;;;;21.79;100.00;100488.66;5067841;28;45364;-76
2023/09/18 01:02:56;;;;;;;;;3.33;2.67;;;;;21.86;100.00;100492.81;5075930;28;64307;-75
2023/09/18 01:05:21;;;;;;;;;3.00;2.67;;;;;21.86;100.00;100480.25;5078239;27;45546;-75
2023/09/18 01:07:47;;;;;;;;;2.33;1.67;;;;;21.84;100.00;100468.72;5078113;27;46635;-75
2023/09/18 01:10:16;;;;;;;;;3.67;2.00;;;;;21.88;100.00;100472.13;5070155;27;45368;-75
2023/09/18 01:12:52;;;;;;;;;3.67;2.00;;;;;21.84;100.00;100475.88;5067841;28;45361;-76
2023/09/18 01:15:22;;;;;;;;;2.00;2.00;;;;;21.80;100.00;100472.44;5077877;27;45529;-74
2023/09/18 01:17:48;;;;;;;;;4.67;1.67;;;;;21.77;100.00;100467.19;5075110;28;47400;-75
2023/09/18 01:20:13;;;;;;;;;2.00;2.00;;;;;21.79;100.00;100464.47;5071143;28;63261;-75
2023/09/18 01:22:39;;;;;;;;;2.00;2.00;;;;;21.75;100.00;100460.13;5075596;27;45345;-75
2023/09/18 01:25:06;;;;;;;;;2.00;2.00;;;;;21.77;100.00;100458.25;5068335;28;45496;-75
2023/09/18 01:27:31;;;;;;;;;3.67;2.33;;;;;21.72;100.00;100461.13;5072354;27;46815;-75
2023/09/18 01:29:57;;;;;;;;;2.67;1.67;;;;;21.73;100.00;100464.69;5073176;28;45200;-74
2023/09/18 01:32:26;;;;;;;;;1.67;1.67;;;;;21.73;100.00;100462.00;5066452;28;65097;-76
2023/09/18 01:34:53;;;;;;;;;1.33;1.33;;;;;21.75;100.00;100468.19;5069004;28;45553;-75
2023/09/18 01:37:20;;;;;;;;;1.67;0.33;;;;;21.71;100.00;100462.06;5073747;28;47537;-75
2023/09/18 01:39:48;;;;;;;;;1.33;0.67;;;;;21.71;100.00;100468.31;5072359;28;45826;-75
2023/09/18 01:42:13;;;;;;;;;3.33;3.33;;;;;21.71;100.00;100464.75;5076760;27;45151;-75
2023/09/18 01:44:39;;;;;;;;;1.67;1.67;;;;;21.67;100.00;100472.06;5075940;27;61924;-75
2023/09/18 01:47:07;;;;;;;;;0.67;0.67;;;;;21.65;100.00;100470.38;5074592;28;47515;-75
2023/09/18 01:49:34;;;;;;;;;2.33;1.33;;;;;21.62;100.00;100466.00;5075367;27;45575;-75
2023/09/18 01:52:00;;;;;;;;;1.33;1.33;;;;;21.59;100.00;100466.13;5072931;28;45455;-75
2023/09/18 01:54:25;;;;;;;;;1.67;1.67;;;;;21.61;100.00;100449.94;5077411;27;45478;-75
2023/09/18 01:56:51;;;;;;;;;1.33;1.33;;;;;21.61;100.00;100453.50;5077134;27;46428;-75
2023/09/18 01:59:17;;;;;;;;;2.00;2.00;;;;;21.58;100.00;100463.53;5077235;27;45192;-75
2023/09/18 02:01:43;;;;;;;;;2.00;2.00;;;;;21.57;100.00;100465.34;5075719;28;45585;-74
2023/09/18 02:04:09;;;;;;;;;3.00;2.33;;;;;21.54;100.00;100461.88;5076730;27;45276;-75
2023/09/18 02:06:35;;;;;;;;;0.67;0.67;;;;;21.52;100.00;100458.38;5076974;27;46646;-75
2023/09/18 02:09:00;;;;;;;;;1.33;0.33;;;;;21.56;100.00;100460.00;5066474;27;45454;-75
2023/09/18 02:11:25;;;;;;;;;2.33;0.33;;;;;21.57;100.00;100451.91;5075452;27;45320;-74
2023/09/18 02:13:51;;;;;;;;;0.67;0.67;;;;;21.58;100.00;100456.34;5065617;27;50492;-74
2023/09/18 02:16:16;;;;;;;;;1.33;1.33;;;;;21.60;100.00;100456.25;5077978;27;69370;-75
2023/09/18 02:18:43;;;;;;;;;0.67;0.67;;;;;21.61;100.00;100461.56;5074784;27;66580;-75
2023/09/18 02:21:08;;;;;;;;;1.00;1.00;;;;;21.62;100.00;100457.06;5070953;27;45327;-75
2023/09/18 02:23:34;;;;;;;;;0.33;0.33;;;;;21.59;100.00;100466.13;5076243;27;58089;-74
2023/09/18 02:25:59;;;;;;;;;1.33;1.33;;;;;21.57;100.00;100453.69;5067700;27;70222;-75
2023/09/18 02:28:24;;;;;;;;;2.67;1.67;;;;;21.56;100.00;100460.00;5076485;27;45430;-75
2023/09/18 02:30:50;;;;;;;;;0.67;0.67;;;;;21.60;100.00;100470.56;5077075;27;45964;-75
2023/09/18 02:33:16;;;;;;;;;1.00;1.00;;;;;21.59;100.00;100468.81;5072756;27;45488;-74
2023/09/18 02:35:43;;;;;;;;;3.67;2.33;;;;;21.59;100.00;100465.25;5076217;27;64715;-75
2023/09/18 02:38:08;;;;;;;;;1.00;1.00;;;;;21.61;100.00;100468.75;5072487;27;45525;-74
2023/09/18 02:40:33;;;;;;;;;2.00;1.67;;;;;21.61;100.00;100461.56;5066583;27;59789;-75
2023/09/18 02:42:59;;;;;;;;;1.67;1.67;;;;;21.58;100.00;100469.75;5063888;28;59854;-75
2023/09/18 02:45:24;;;;;;;;;1.67;1.67;;;;;21.55;100.00;100477.06;5060395;28;48792;-74
2023/09/18 02:47:49;;;;;;;;;2.33;2.33;;;;;21.50;100.00;100477.25;5073526;27;68955;-75
2023/09/18 02:50:15;;;;;;;;;2.00;2.00;;;;;21.45;100.00;100488.16;5062684;27;53732;-74
2023/09/18 02:52:40;;;;;;;;;1.33;1.33;;;;;21.43;100.00;100475.75;5077029;27;45268;-74
2023/09/18 02:55:06;;;;;;;;;5.67;2.00;;;;;21.42;100.00;100474.88;5076804;27;46477;-74
2023/09/18 02:57:31;;;;;;;;;1.67;1.67;;;;;21.40;100.00;100468.66;5076373;27;45337;-74
2023/09/18 02:59:56;;;;;;;;;2.67;2.67;;;;;21.36;100.00;100479.59;5077303;27;45688;-75
2023/09/18 03:02:22;;;;;;;;;2.33;2.33;;;;;21.32;100.00;100481.53;5069615;27;59320;-74
2023/09/18 03:04:48;;;;;;;;;2.00;2.00;;;;;21.29;100.00;100483.41;5076045;27;59848;-75
2023/09/18 03:07:13;;;;;;;;;2.67;2.00;;;;;21.30;100.00;100483.38;5070607;27;45429;-75
2023/09/18 03:09:38;;;;;;;;;3.67;3.67;;;;;21.27;100.00;100479.94;5071871;27;45393;-74
2023/09/18 03:12:04;;;;;;;;;1.67;1.67;;;;;21.29;100.00;100478.06;5075412;27;62567;-74
2023/09/18 03:14:29;;;;;;;;;2.00;2.00;;;;;21.26;100.00;100473.69;5068399;27;47397;-75
2023/09/18 03:16:55;;;;;;;;;4.00;3.00;;;;;21.24;100.00;100467.47;5073436;28;45428;-75
2023/09/18 03:19:22;;;;;;;;;2.67;2.67;;;;;21.24;100.00;100480.91;5063538;27;45443;-75
2023/09/18 03:21:47;;;;;;;;;2.00;2.00;;;;;21.22;100.00;100466.69;5075040;28;45442;-75
2023/09/18 03:24:13;;;;;;;;;3.67;2.67;;;;;21.21;100.00;100477.50;5077324;28;69877;-75
2023/09/18 03:26:38;;;;;;;;;2.33;2.33;;;;;21.20;100.00;100460.50;5077299;27;64497;-75
2023/09/18 03:29:03;;;;;;;;;1.33;1.33;;;;;21.21;100.00;100464.94;5079497;27;64229;-75
2023/09/18 03:31:29;;;;;;;;;2.00;2.00;;;;;21.16;100.00;100466.91;5073199;27;45223;-75
2023/09/18 03:33:55;;;;;;;;;2.33;2.33;;;;;21.13;100.00;100462.53;5079404;27;46453;-74
2023/09/18 03:36:23;;;;;;;;;3.67;3.67;;;;;21.15;100.00;100459.81;5078932;27;45429;-74
2023/09/18 03:38:49;;;;;;;;;2.33;2.33;;;;;21.16;100.00;100467.78;5079828;27;46015;-74
2023/09/18 03:41:14;;;;;;;;;2.67;2.00;;;;;21.14;100.00;100458.91;5079052;27;45323;-74
2023/09/18 03:43:40;;;;;;;;;2.33;2.33;;;;;21.13;100.00;100461.66;5079196;27;50099;-74
2023/09/18 03:46:06;;;;;;;;;3.00;1.67;;;;;21.08;100.00;100469.00;5070876;27;45256;-74
2023/09/18 03:48:37;;;;;;;;;3.33;2.00;;;;;21.04;100.00;100462.00;5079426;27;45278;-75
2023/09/18 03:51:08;;;;;;;;;2.00;2.00;;;;;21.06;100.00;100462.84;5078806;27;45571;-75
2023/09/18 03:53:33;;;;;;;;;2.67;2.67;;;;;21.04;100.00;100453.94;5078951;27;47393;-75
2023/09/18 03:55:59;;;;;;;;;3.00;3.00;;;;;21.06;100.00;100454.78;5066544;27;45315;-74
2023/09/18 03:58:25;;;;;;;;;3.33;1.33;;;;;21.07;100.00;100448.47;5079585;27;45191;-74
2023/09/18 04:00:51;;;;;;;;;2.00;2.00;;;;;21.05;100.00;100447.66;5066292;27;45433;-75
2023/09/18 04:03:16;;;;;;;;;3.33;2.00;;;;;21.03;100.00;100445.03;5070265;27;46441;-74
2023/09/18 04:05:42;;;;;;;;;4.00;2.33;;;;;21.03;100.00;100449.50;5075299;28;45304;-75
2023/09/18 04:08:07;;;;;;;;;4.00;2.33;;;;;21.02;100.00;100453.13;5076056;27;60675;-75
2023/09/18 04:10:32;;;;;;;;;2.67;2.33;;;;;21.00;100.00;100446.97;5076443;27;63693;-75
2023/09/18 04:12:58;;;;;;;;;3.00;3.00;;;;;20.99;100.00;100443.41;5078911;27;46298;-74
2023/09/18 04:15:23;;;;;;;;;2.33;2.33;;;;;21.04;100.00;100440.53;5076950;27;67235;-75
2023/09/18 04:17:48;;;;;;;;;2.00;2.00;;;;;21.00;100.00;100439.78;5077469;27;45278;-75
2023/09/18 04:20:14;;;;;;;;;5.00;3.00;;;;;21.01;100.00;100437.97;5068816;27;48136;-74
2023/09/18 04:22:44;;;;;;;;;4.00;3.00;;;;;21.01;100.00;100448.72;5078729;27;46487;-74
2023/09/18 04:25:10;;;;;;;;;5.00;4.00;;;;;21.00;100.00;100444.28;5068295;27;45365;-74
2023/09/18 04:27:35;;;;;;;;;5.33;3.00;;;;;21.01;100.00;100437.97;5078887;27;45434;-75
2023/09/18 04:30:01;;;;;;;;;3.00;3.00;;;;;21.02;100.00;100447.78;5079153;27;45696;-74
2023/09/18 04:32:29;;;;;;;;;2.33;2.33;;;;;21.03;100.00;100447.69;5067624;27;72639;-74
2023/09/18 04:34:54;;;;;;;;;3.00;3.00;;;;;21.05;100.00;100453.03;5075541;28;45391;-75
2023/09/18 04:37:19;;;;;;;;;4.33;4.33;;;;;21.01;100.00;100451.41;5078921;27;45346;-75
2023/09/18 04:39:45;;;;;;;;;1.67;1.67;;;;;21.01;100.00;100449.59;5078255;27;56349;-75
2023/09/18 04:42:10;;;;;;;;;3.67;3.67;;;;;21.02;100.00;100455.81;5077603;27;69049;-76
2023/09/18 04:44:35;;;;;;;;;2.67;2.67;;;;;21.03;100.00;100447.69;5077843;27;59269;-77
2023/09/18 04:47:01;;;;;;;;;2.00;2.00;;;;;21.04;100.00;100440.53;5077960;27;56291;-76
2023/09/18 04:49:27;;;;;;;;;4.33;3.67;;;;;21.04;100.00;100435.16;5074633;27;59929;-76
2023/09/18 04:51:53;;;;;;;;;4.00;2.33;;;;;21.02;100.00;100437.91;5062771;28;46648;-74
2023/09/18 04:54:19;;;;;;;;;3.00;3.00;;;;;21.02;100.00;100437.03;5066680;27;59156;-74
2023/09/18 04:56:45;;;;;;;;;2.33;2.33;;;;;21.04;100.00;100445.88;5077834;27;45229;-76
2023/09/18 04:59:10;;;;;;;;;5.33;4.00;;;;;21.07;100.00;100441.28;5070599;27;45631;-75
2023/09/18 05:01:36;;;;;;;;;4.00;3.67;;;;;21.08;100.00;100439.47;5068193;27;47454;-74
2023/09/18 05:04:01;;;;;;;;;7.33;2.67;;;;;21.07;100.00;100449.34;5062099;28;45492;-75
2023/09/18 05:06:26;;;;;;;;;4.33;2.67;;;;;21.08;100.00;100448.41;5061877;28;62039;-75
2023/09/18 05:08:53;;;;;;;;;4.00;2.00;;;;;21.10;100.00;100440.31;5060810;28;45341;-75
2023/09/18 05:11:18;;;;;;;;;4.00;3.33;;;;;21.11;100.00;100436.69;5066134;27;47798;-74
2023/09/18 05:13:44;;;;;;;;;3.67;3.67;;;;;21.09;100.00;100443.91;5061437;28;45465;-74
2023/09/18 05:16:09;;;;;;;;;2.33;2.33;;;;;21.09;100.00;100443.91;5068919;27;60245;-75
2023/09/18 05:18:34;;;;;;;;;3.33;3.33;;;;;21.08;100.00;100452.91;5075775;27;63165;-76
2023/09/18 05:21:01;;;;;;;;;3.67;2.67;;;;;21.10;100.00;100454.59;5071576;28;46073;-76
2023/09/18 05:23:27;;;;;;;;;3.67;3.67;;;;;21.12;100.00;100443.81;5062300;27;45582;-75
2023/09/18 05:25:53;;;;;;;;;6.33;3.67;;;;;21.17;100.00;100450.75;5073215;27;45375;-75
2023/09/18 05:28:18;;;;;;;;;6.67;3.00;;;;;21.25;100.00;100458.50;5067497;28;45529;-76
2023/09/18 05:30:43;;;;;;;;;4.67;4.67;;;;;21.30;100.00;100461.03;5072737;27;70047;-76
2023/09/18 05:33:09;;;;;;;;;8.00;5.00;;;;;21.31;100.00;100452.94;5072921;27;57203;-76
2023/09/18 05:35:39;;;;;;;;;4.67;3.00;;;;;21.34;100.00;100452.78;5063299;28;45605;-78
2023/09/18 05:38:05;;;;;;;;;5.67;4.00;;;;;21.42;100.00;100450.69;5067045;28;45551;-77
2023/09/18 05:40:30;;;;;;;;;3.00;3.00;;;;;21.47;100.00;100455.03;5062230;27;47397;-76
2023/09/18 05:42:56;;;;;;;;;4.67;4.67;;;;;21.56;100.00;100450.13;5073803;27;46471;-76
2023/09/18 05:45:22;;;;;;;;;5.67;5.67;;;;;21.57;100.00;100456.38;5075260;27;45338;-76
2023/09/18 05:47:48;;;;;;;;;4.67;4.00;;;;;21.55;100.00;100451.06;5075922;27;45544;-76
2023/09/18 05:50:15;;;;;;;;;7.33;4.33;;;;;21.57;100.00;100462.66;5066148;28;47249;-76
2023/09/18 05:52:41;;;;;;;;;5.33;3.00;;;;;21.59;100.00;100459.88;5070755;27;45687;-75
2023/09/18 05:55:07;;;;;;;;;4.67;4.67;;;;;21.63;100.00;100465.09;5076656;27;45477;-76
2023/09/18 05:57:32;;;;;;;;;6.00;6.00;;;;;21.63;100.00;100461.53;5065217;27;45442;-77
2023/09/18 05:59:58;;;;;;;;;4.67;4.67;;;;;21.67;100.00;100471.19;5076447;28;45463;-75
2023/09/18 06:02:24;;;;;;;;;5.00;5.00;;;;;21.71;100.00;100476.38;5073496;27;67272;-75
2023/09/18 06:04:55;;;;;;;;;5.67;5.33;;;;;21.73;100.00;100476.31;5076455;27;45393;-76
2023/09/18 06:07:22;;;;;;;;;5.33;5.33;;;;;21.78;100.00;100481.50;5075027;27;45479;-76
2023/09/18 06:09:48;;;;;;;;;7.33;4.33;;;;;21.82;100.00;100484.00;5062062;27;47394;-75
2023/09/18 06:12:14;;;;;;;;;5.00;5.00;;;;;21.83;100.00;100491.13;5069473;28;45450;-77
2023/09/18 06:14:39;;;;;;;;;5.67;5.33;;;;;21.81;100.00;100487.63;5073537;27;45463;-74
2023/09/18 06:17:05;;;;;;;;;5.33;5.33;;;;;21.82;100.00;100484.00;5076041;27;63608;-74
2023/09/18 06:19:31;;;;;;;;;5.67;4.33;;;;;21.85;100.00;100473.13;5066544;28;45769;-75
2023/09/18 06:21:56;;;;;;;;;29.67;28.33;;;;;21.87;100.00;100467.69;5061487;27;45505;-74
2023/09/18 06:24:21;;;;;;;;;8.33;8.33;;;;;21.88;100.00;100462.25;5066062;27;67086;-76
2023/09/18 06:26:47;;;;;;;;;5.00;5.00;;;;;21.92;100.00;100463.88;5064047;27;63026;-74
2023/09/18 06:29:13;;;;;;;;;10.33;6.67;;;;;21.96;100.00;100476.25;5067245;27;48038;-72
2023/09/18 06:31:38;;;;;;;;;7.00;6.00;;;;;22.00;100.00;100476.09;5069253;27;45414;-75
2023/09/18 06:34:04;;;;;;;;;13.33;7.67;;;;;22.01;100.00;100467.13;5063186;27;46043;-74
2023/09/18 06:36:29;;;;;;;;;10.00;6.00;;;;;21.99;100.00;100472.53;5063808;28;45544;-74
2023/09/18 06:38:55;;;;;;;;;6.33;6.33;;;;;22.02;100.00;100476.94;5066652;28;72169;-75
2023/09/18 06:41:20;;;;;;;;;5.67;5.67;;;;;22.07;100.00;100473.13;5067919;27;67301;-74
2023/09/18 06:43:45;;;;;;;;;5.00;5.00;;;;;22.04;100.00;100481.28;5060372;28;45339;-74
2023/09/18 06:46:11;;;;;;;;;6.00;6.00;;;;;22.07;100.00;100467.72;5067192;27;45551;-75
2023/09/18 06:48:36;;;;;;;;;6.67;5.33;;;;;22.12;100.00;100467.56;5069354;27;68454;-75
2023/09/18 06:51:02;;;;;;;;;6.67;5.33;;;;;22.18;100.00;100478.06;5068632;27;70073;-75
2023/09/18 06:53:27;;;;;;;;;6.00;6.00;;;;;22.24;100.00;100477.81;5068186;28;45541;-75
2023/09/18 06:55:53;;;;;;;;;8.00;8.00;;;;;22.28;100.00;100471.34;5067627;28;45710;-75
2023/09/18 06:58:19;;;;;;;;;7.00;6.67;;;;;22.30;100.00;100476.66;5067010;27;45750;-75
2023/09/18 07:00:44;;;;;;;;;6.00;6.00;;;;;22.32;100.00;100480.16;5066003;28;45448;-76
2023/09/18 07:03:09;;;;;;;;;8.00;8.00;;;;;22.40;100.00;100495.03;5072745;27;63750;-74
2023/09/18 07:05:35;;;;;;;;;12.00;8.00;;;;;22.51;100.00;100477.53;5071452;27;45449;-74
2023/09/18 07:08:00;;;;;;;;;7.00;7.00;;;;;22.58;100.00;100489.78;5070370;27;46456;-74
2023/09/18 07:10:26;;;;;;;;;7.33;7.33;;;;;22.69;100.00;100507.22;5064976;28;45797;-74
2023/09/18 07:12:51;;;;;;;;;5.33;5.33;;;;;22.77;100.00;100506.88;5057081;27;45450;-74
2023/09/18 07:15:17;;;;;;;;;7.33;7.00;;;;;22.87;100.00;100499.25;5066089;28;45398;-74
2023/09/18 07:17:42;;;;;;;;;6.67;6.33;;;;;22.89;100.00;100498.25;5071265;27;55529;-74
2023/09/18 07:20:13;;;;;;;;;6.00;6.00;;;;;22.89;100.00;100492.88;5064923;28;68864;-74
2023/09/18 07:22:39;;;;;;;;;9.00;7.00;;;;;22.98;100.00;100491.59;5061357;28;45433;-76
2023/09/18 07:25:05;;;;;;;;;5.67;5.67;;;;;23.01;100.00;100488.78;5064731;28;45508;-74
2023/09/18 07:27:30;;;;;;;;;6.67;5.33;;;;;23.04;100.00;100475.16;5061988;28;46662;-74
2023/09/18 07:29:57;;;;;;;;;7.33;6.00;;;;;23.03;100.00;100477.94;5064238;27;67785;-73
2023/09/18 07:32:23;;;;;;;;;6.00;6.00;;;;;23.06;100.00;100485.84;5071386;28;45500;-73
2023/09/18 07:34:49;;;;;;;;;9.00;6.00;;;;;23.10;100.00;100493.72;5069074;27;45529;-74
2023/09/18 07:37:20;;;;;;;;;7.00;7.00;;;;;23.10;100.00;100496.41;5068463;28;47484;-74
2023/09/18 07:39:46;;;;;;;;;9.00;5.00;;;;;23.13;100.00;100498.97;5065421;28;45469;-75
2023/09/18 07:42:11;;;;;;;;;6.67;6.67;;;;;23.16;100.00;100493.44;5068566;27;45435;-75
2023/09/18 07:44:37;;;;;;;;;6.33;5.33;;;;;23.19;100.00;100496.00;5068082;27;51896;-75
2023/09/18 07:47:02;;;;;;;;;8.00;7.00;;;;;23.15;100.00;100485.44;5064832;27;55836;-76
2023/09/18 07:49:28;;;;;;;;;7.00;5.67;;;;;23.10;100.00;100488.34;5070690;27;45578;-72
2023/09/18 07:51:53;;;;;;;;;4.67;4.00;;;;;23.02;100.00;100487.84;5066489;27;53989;-75
2023/09/18 07:54:18;;;;;;;;;5.00;3.67;;;;;22.93;100.00;100483.72;5069980;27;56697;-76
2023/09/18 07:56:44;;;;;;;;;4.00;4.00;;;;;22.89;100.00;100484.81;5066246;28;55753;-76
2023/09/18 07:59:10;;;;;;;;;6.67;6.67;;;;;22.89;100.00;100484.81;5071513;27;45500;-75
2023/09/18 08:01:36;;;;;;;;;6.00;6.00;;;;;22.95;100.00;100492.59;5064649;28;45518;-75
2023/09/18 08:04:02;;;;;;;;;8.00;6.00;;;;;22.96;100.00;100494.38;5064827;28;45524;-75
2023/09/18 08:06:28;;;;;;;;;6.00;6.00;;;;;23.05;100.00;100493.06;5063410;28;47078;-74
2023/09/18 08:08:53;;;;;;;;;6.67;6.00;;;;;23.05;100.00;100490.38;5065468;28;45618;-75
2023/09/18 08:11:18;;;;;;;;;4.00;4.00;;;;;23.03;100.00;100489.56;5070808;27;45396;-75
2023/09/18 08:13:44;;;;;;;;;6.67;5.00;;;;;22.97;100.00;100493.44;5056141;22;61963;-75
2023/09/18 08:16:09;;;;;;;;;5.67;5.67;;;;;22.95;100.00;100489.91;5067631;27;69031;-75
2023/09/18 08:18:35;;;;;;;;;8.33;6.00;;;;;23.00;100.00;100487.88;5070456;27;45622;-75
2023/09/18 08:21:00;;;;;;;;;7.00;5.33;;;;;23.03;100.00;100491.41;5067819;28;45452;-74
2023/09/18 08:23:26;;;;;;;;;5.33;5.00;;;;;23.09;100.00;100489.28;5071329;28;45414;-74
2023/09/18 08:25:55;;;;;;;;;4.00;4.00;;;;;23.18;100.00;100498.78;5067971;28;69840;-76
2023/09/18 08:28:20;;;;;;;;;7.33;6.00;;;;;23.25;100.00;100492.13;5064892;28;45548;-75
2023/09/18 08:30:47;;;;;;;;;7.33;7.00;;;;;23.32;100.00;100488.19;5068550;27;45409;-75
2023/09/18 08:33:13;;;;;;;;;3.00;3.00;;;;;23.40;100.00;100482.47;5069658;27;45593;-75
2023/09/18 08:35:39;;;;;;;;;5.67;5.00;;;;;23.39;100.00;100481.59;5067262;27;47370;-75
2023/09/18 08:38:04;;;;;;;;;7.00;6.00;;;;;23.45;100.00;100489.38;5066690;28;45402;-75
2023/09/18 08:40:30;;;;;;;;;5.67;5.00;;;;;23.52;100.00;100488.13;5071427;28;45465;-75
2023/09/18 08:42:56;;;;;;;;;6.00;5.00;;;;;23.56;100.00;100505.03;5068162;27;46346;-75
2023/09/18 08:45:35;;;;;;;;;5.33;5.00;;;;;23.61;100.00;100491.34;5069902;28;46668;-75
2023/09/18 08:48:00;;;;;;;;;7.00;6.00;;;;;23.67;100.00;100508.13;5060405;27;45370;-74
2023/09/18 08:50:26;;;;;;;;;5.00;5.00;;;;;23.68;100.00;100503.59;5058741;28;45357;-75
2023/09/18 08:52:52;;;;;;;;;4.67;4.00;;;;;23.66;100.00;100508.19;5067928;28;45342;-76
2023/09/18 08:55:18;;;;;;;;;4.00;4.00;;;;;23.64;100.00;100510.94;5070480;27;46695;-75
2023/09/18 08:57:44;;;;;;;;;3.33;3.33;;;;;23.60;100.00;100508.47;5067882;27;69422;-75
2023/09/18 09:00:16;;;;;;;;;9.00;6.00;;;;;23.62;100.00;100493.09;5065873;28;45568;-74
2023/09/18 09:02:41;;;;;;;;;4.00;4.00;;;;;23.69;100.00;100502.66;5061013;28;45507;-74
2023/09/18 09:05:07;;;;;;;;;4.00;4.00;;;;;23.68;100.00;100499.06;5066787;28;46548;-75
2023/09/18 09:07:32;;;;;;;;;4.67;4.00;;;;;23.71;100.00;100504.34;5063377;28;58301;-75
2023/09/18 09:09:57;;;;;;;;;5.00;3.33;;;;;23.75;100.00;100500.50;5068771;28;66272;-77
2023/09/18 09:12:53;;;;;;;;;6.00;6.00;;;;;23.81;100.00;100504.75;5063874;28;45524;-76
2023/09/18 09:15:22;;;;;;;;;5.33;4.00;;;;;23.86;100.00;100489.19;5068454;27;45330;-76
2023/09/18 09:17:49;;;;;;;;;5.67;4.00;;;;;23.88;100.00;100487.31;5069568;27;45612;-75
2023/09/18 09:20:15;;;;;;;;;4.00;4.00;;;;;23.93;100.00;100496.06;5069011;28;45477;-75
2023/09/18 09:22:41;;;;;;;;;5.67;5.33;;;;;24.01;100.00;100491.13;5064249;28;45370;-75
2023/09/18 09:25:24;;;;;;;;;7.00;5.33;;;;;24.05;100.00;100481.94;5070450;27;47233;-75
2023/09/18 09:27:49;;;;;;;;;6.33;5.00;;;;;24.08;100.00;100482.78;5063396;27;46456;-75
2023/09/18 09:30:25;;;;;;;;;6.00;4.00;;;;;24.08;100.00;100472.84;5071476;28;45550;-75
2023/09/18 09:32:53;;;;;;;;;7.67;6.00;;;;;24.15;100.00;100474.28;5072741;27;45363;-75
2023/09/18 09:35:29;;;;;;;;;4.00;4.00;;;;;24.16;100.00;100475.13;5069654;28;46713;-75
2023/09/18 09:38:00;;;;;;;;;4.00;4.00;;;;;24.18;100.00;100474.13;5068272;28;45300;-75
2023/09/18 09:40:26;;;;;;;;;5.00;5.00;;;;;24.29;100.00;100471.75;5064164;28;45482;-76
2023/09/18 09:42:57;;;;;;;;;5.33;5.33;;;;;24.45;100.00;100482.66;5064069;27;45544;-76
2023/09/18 09:45:23;;;;;;;;;5.00;5.00;;;;;24.56;100.00;100476.69;5068234;28;46001;-76
2023/09/18 09:47:53;;;;;;;;;5.33;5.00;;;;;24.58;100.00;100473.91;5060668;28;45346;-76
2023/09/18 09:50:19;;;;;;;;;5.00;4.33;;;;;24.63;100.00;100479.94;5064560;28;45661;-75
2023/09/18 09:52:48;;;;;;;;;6.33;4.67;;;;;24.65;100.00;100489.69;5066790;27;45418;-75
2023/09/18 09:55:31;;;;;;;;;7.67;5.00;;;;;24.65;100.00;100475.31;5074986;27;47503;-75
2023/09/18 09:58:04;;;;;;;;;4.33;4.33;;;;;24.67;100.00;100485.09;5060541;28;45545;-74
2023/09/18 10:00:45;;;;;;;;;5.00;4.00;;;;;24.68;100.00;100480.56;5066477;28;45599;-74
2023/09/18 10:03:20;;;;;;;;;4.33;3.33;;;;;24.68;100.00;100481.44;5060408;27;45821;-76
2023/09/18 10:05:47;;;;;;;;;5.00;3.33;;;;;24.72;100.00;100479.47;5067377;28;47436;-75
2023/09/18 10:08:17;;;;;;;;;4.67;4.67;;;;;24.78;100.00;100471.03;5064022;28;45787;-75
2023/09/18 10:10:47;;;;;;;;;7.67;4.00;;;;;24.83;100.00;100468.94;5069890;28;45370;-75
2023/09/18 10:13:17;;;;;;;;;4.00;4.00;;;;;24.94;100.00;100469.25;5068498;28;45390;-74
2023/09/18 10:15:43;;;;;;;;;4.00;2.33;;;;;25.02;100.00;100480.47;5069618;27;46898;-76
2023/09/18 10:18:17;;;;;;;;;6.33;4.33;;;;;25.13;100.00;100463.72;5073283;28;45562;-75
2023/09/18 10:20:45;;;;;;;;;4.33;4.33;;;;;25.31;100.00;100462.72;5065804;28;45394;-75
2023/09/18 10:23:31;;;;;;;;;6.33;4.00;;;;;25.45;100.00;100452.94;5063078;27;45965;-77
2023/09/18 10:26:00;;;;;;;;;5.00;3.67;;;;;25.53;100.00;100462.38;5073250;28;46283;-75
2023/09/18 10:28:27;;;;;;;;;3.67;3.67;;;;;25.60;100.00;100452.94;5068930;28;45403;-73
2023/09/18 10:30:56;;;;;;;;;5.33;3.67;;;;;25.74;100.00;100453.97;5068599;28;45568;-76
2023/09/18 10:33:21;;;;;;;;;4.00;4.00;;;;;25.86;100.00;100461.41;5063105;28;45502;-75
2023/09/18 10:35:47;;;;;;;;;3.00;3.00;;;;;25.92;100.00;100461.03;5069757;28;46501;-73
2023/09/18 10:38:15;;;;;;;;;3.33;3.00;;;;;25.98;100.00;100457.97;5059713;28;45420;-74
2023/09/18 10:40:41;;;;;;;;;4.00;4.00;;;;;26.08;100.00;100452.91;5070282;27;45519;-74
2023/09/18 10:43:09;;;;;;;;;5.00;3.00;;;;;26.24;100.00;100458.25;5067049;28;45549;-73
2023/09/18 10:45:35;;;;;;;;;3.67;3.67;;;;;26.38;100.00;100448.34;5063660;28;46508;-73
2023/09/18 10:48:00;;;;;;;;;6.33;5.33;;;;;26.49;100.00;100436.03;5065773;28;66908;-74
2023/09/18 10:50:27;;;;;;;;;4.00;4.00;;;;;26.66;100.00;100448.53;5064371;28;45564;-76
2023/09/18 10:52:53;;;;;;;;;3.33;3.33;;;;;26.81;100.00;100436.75;5069440;28;45566;-76
2023/09/18 10:55:18;;;;;;;;;2.33;2.33;;;;;26.96;100.00;100440.31;5072178;27;45924;-78
2023/09/18 10:57:52;;;;;;;;;4.00;3.00;;;;;27.04;100.00;100428.00;5070291;28;45449;-75
2023/09/18 11:00:22;;;;;;;;;3.67;3.00;;;;;26.99;100.00;100432.84;5064628;27;45717;-77
2023/09/18 11:02:49;;;;;;;;;3.00;3.00;;;;;26.86;100.00;100435.47;5065350;28;45661;-77
2023/09/18 11:05:14;;;;;;;;;3.00;3.00;;;;;26.78;100.00;100426.94;5062098;28;47457;-76
2023/09/18 11:07:40;;;;;;;;;1.00;1.00;;;;;26.74;100.00;100419.09;5064269;28;45484;-76
2023/09/18 11:10:27;;;;;;;;;2.67;2.67;;;;;26.87;100.00;100418.25;5072595;27;64925;-77
2023/09/18 11:12:54;;;;;;;;;3.00;3.00;;;;;27.02;100.00;100426.38;5066240;28;45594;-76
2023/09/18 11:15:32;;;;;;;;;3.00;3.00;;;;;27.01;100.00;100421.94;5073934;27;47470;-76